Terminal Aerodrome Forecast
Issued by NWS Sterling, VA

Home | Current Version | Previous Version | Text Only | Print | Product List | Glossary On
Versions: 1 2 3 4 5 6 7 8 9 10 11 12 13 14 15 16 17 18 19 20 21 22 23 24
730
FTUS41 KLWX 250901 AAA
TAFDCA
TAF AMD
KDCA 250901Z 2509/2606 22003KT P6SM SKC
     FM251900 25005KT P6SM BKN080
     FM252100 29006KT P6SM BKN045
     FM260100 30008KT P6SM SCT045=

USA.gov is the U.S. government's official web portal to all federal, state and local government web resources and services.